SBPV/PVH METAR and TAF weather

Enter ICAO airport designator
Station Type Date Time Source
SBPV METAR 2018/12/13 22:00 UTC NOAA

SBPV 132200Z 02006KT 9999 VCSH SCT035 FEW040TCU SCT080 28/23 Q1 008


Station Type Date Time Source
SBPV Decoded METAR 2018/12/13 22:00 UTC NOAA

Porto Velho Aeroporto , Brazil (SBPV) 08-46S 063-55W 102M
Dec 13, 2018 - 05:00 PM EST / 2018.12.13 2200 UTC
Wind: from the NNE (020 degrees) at 7 MPH (6 KT):0
Visibility: greater than 7 mile(s):0
Sky conditions: partly cloudy
Weather: showers in the vicinity; Towering cumulus clouds observed
Temperature: 82 F (28 C)
Dew Point: 73 F (23 C)
Relative Humidity: 74%
ob: SBPV 132200Z 02006KT 9999 VCSH SCT035 FEW040TCU SCT080 28/23 Q1 008
cycle: 22

Station Type Date Time Source
SBPV TAF 2018/12/13 18:45 UTC NOAA

TAF SBPV 131600Z 1318/1418 03005KT 9999 SCT030 FEW035TCU TX30/1318Z T N24/1409Z
BECMG 1319/1321 06002KT
BECMG 1323/1401 FEW025
BECMG 1403/1405 01003 KT
BECMG 1407/1409 00000KT
BECMG 1411/1413 02005KT SCT015
BECMG 1415/14 17 SCT030 FEW035TCU
RMK PCQ


Example: see airport list